Paulding, OH (45879)

2:43 PM EST on December 04, 2016 (GMT -0500)
3 miles WNW of Melrose | | Change Station

Elev 722 ft 41.10 °N, 84.48 °W | Updated 4 seconds ago

Overcast
Overcast
38.7 °F
Feels Like 36 °F
N
4.0
Wind Variable Wind from East
Gusts 11.0 mph

Today
High -- | Low -- °F
--% Chance of Precip.
Yesterday
High -- | Low -- °F
Precip. -- in
Pressure 30.07 in
Visibility 10.0 miles
Clouds Overcast 9000 ft
Windchill 36 °F
Dew Point 32 °F
Humidity 77%
Rainfall 0.00 in
Snow Depth Not available.
7:47 AM 5:09 PM
Waxing Crescent, 25% visible
METAR KDFI 041853Z AUTO 13007KT 10SM OVC090 04/M02 A3005 RMK AO2 SLP181 T00441017
Pressure 30.07 in
Visibility 10.0 miles
Clouds Overcast 9000 ft
Windchill 36 °F
Dew Point 32 °F
Humidity 77%
Rainfall 0.00 in
Snow Depth Not available.
7:47 AM 5:09 PM
Waxing Crescent, 25% visible
METAR KDFI 041853Z AUTO 13007KT 10SM OVC090 04/M02 A3005 RMK AO2 SLP181 T00441017

10-Day Weather Forecast

Almanac

Astronomy

Dec. 04, 2016 Rise Set
Actual Time
Civil Twilight
Nautical Twilight
Astronomical Twilight
Moon
Length of Visible Light
Length of Day
Tomorrow will be .
, % of the Moon is Illuminated

Today's Extremes

State Highs State Lows

Community

WunderPhotos

Upload Photos

1,955,652 photos uploaded!

WunderBlog® & News

Nearby

Air Quality

  Air Quality AQ Index Pollutant
Not available.

Snow Depth

Station Depth Elevation

Earthquake Activity

City Distance Mag. Time & Date
Minimum magnitude displayed is 2.5.

Coastal Water Temperatures

Place Temperature

Stations

Nearby Weather Stations

Station Location Temp. Windchill Dew Point Humidity Wind Precip. Elev Updated Type
                   

Watches & Warnings

There are currently no watches in effect.